Pont Rhyd-y-cyff, United Kingdom
Current Conditions -  °F | °C
As of 3:50 PM on Friday 21 Nov 2014 (Local Time) from EGDX Reporting Station
Moderate Rain Moderate Rain  
Wind Chill: 50°   Ceiling: 400
Heat Index: 50°   Visibility: 3mi
Dew Point: 48°   Wind: 9mph
Humidity: 94%   Direction: 80°E
Pressure: 29.85"   Gusts: NA
Location:  51.59°N, 3.64°W
Report Text: EGDX 211550Z AUTO 08008KT 5000 RA OVC004/// 10/09 Q1011
Loading
Personal Weather Stations






























Interactive Weather Map New forecast layout! Learn more

10-Day Weather Forecast

Advertisements
Track Severe Weather on mobile